sensor_id;sensor_type;location;lat;lon;timestamp;P1;durP1;ratioP1;P2;durP2;ratioP2
434;SDS011;204;48.942;9.256;2023-07-29T00:01:41;4.77;;;4.50;;
434;SDS011;204;48.942;9.256;2023-07-29T00:04:07;4.43;;;3.67;;
434;SDS011;204;48.942;9.256;2023-07-29T00:06:36;5.40;;;5.13;;
434;SDS011;204;48.942;9.256;2023-07-29T00:09:02;6.87;;;4.97;;
434;SDS011;204;48.942;9.256;2023-07-29T00:11:28;4.40;;;4.10;;
434;SDS011;204;48.942;9.256;2023-07-29T00:13:53;9.50;;;5.20;;
434;SDS011;204;48.942;9.256;2023-07-29T00:16:19;4.17;;;3.93;;
434;SDS011;204;48.942;9.256;2023-07-29T00:18:47;4.63;;;3.07;;
434;SDS011;204;48.942;9.256;2023-07-29T00:21:13;5.07;;;3.70;;
434;SDS011;204;48.942;9.256;2023-07-29T00:23:38;5.27;;;3.93;;
434;SDS011;204;48.942;9.256;2023-07-29T00:26:04;5.67;;;3.90;;
434;SDS011;204;48.942;9.256;2023-07-29T00:28:30;3.90;;;3.47;;
434;SDS011;204;48.942;9.256;2023-07-29T00:30:55;5.67;;;4.20;;
434;SDS011;204;48.942;9.256;2023-07-29T00:33:21;5.97;;;4.30;;
434;SDS011;204;48.942;9.256;2023-07-29T00:35:46;5.93;;;4.03;;
434;SDS011;204;48.942;9.256;2023-07-29T00:38:12;4.50;;;4.20;;
434;SDS011;204;48.942;9.256;2023-07-29T00:40:38;4.80;;;4.50;;
434;SDS011;204;48.942;9.256;2023-07-29T00:43:03;4.83;;;4.40;;
434;SDS011;204;48.942;9.256;2023-07-29T00:45:29;15.33;;;4.50;;
434;SDS011;204;48.942;9.256;2023-07-29T00:47:55;4.23;;;3.93;;
434;SDS011;204;48.942;9.256;2023-07-29T00:50:21;4.77;;;3.70;;
434;SDS011;204;48.942;9.256;2023-07-29T00:52:48;7.83;;;4.27;;
434;SDS011;204;48.942;9.256;2023-07-29T00:55:14;5.77;;;4.13;;
434;SDS011;204;48.942;9.256;2023-07-29T00:57:40;5.17;;;3.97;;
434;SDS011;204;48.942;9.256;2023-07-29T01:00:07;4.33;;;3.87;;
434;SDS011;204;48.942;9.256;2023-07-29T01:02:33;4.47;;;3.30;;
434;SDS011;204;48.942;9.256;2023-07-29T01:05:00;5.50;;;3.63;;
434;SDS011;204;48.942;9.256;2023-07-29T01:18:02;4.03;;;3.77;;
434;SDS011;204;48.942;9.256;2023-07-29T01:20:43;5.73;;;4.50;;
434;SDS011;204;48.942;9.256;2023-07-29T01:23:10;3.90;;;3.70;;
434;SDS011;204;48.942;9.256;2023-07-29T01:25:36;4.60;;;4.30;;
434;SDS011;204;48.942;9.256;2023-07-29T01:28:02;3.80;;;3.70;;
434;SDS011;204;48.942;9.256;2023-07-29T01:30:31;4.67;;;4.37;;
434;SDS011;204;48.942;9.256;2023-07-29T01:33:48;5.70;;;4.17;;
434;SDS011;204;48.942;9.256;2023-07-29T01:35:51;4.80;;;4.47;;
434;SDS011;204;48.942;9.256;2023-07-29T01:38:32;8.13;;;4.67;;
434;SDS011;204;48.942;9.256;2023-07-29T01:41:03;4.13;;;3.90;;
434;SDS011;204;48.942;9.256;2023-07-29T01:43:32;3.37;;;3.17;;
434;SDS011;204;48.942;9.256;2023-07-29T01:45:58;5.53;;;2.90;;
434;SDS011;204;48.942;9.256;2023-07-29T01:48:25;3.17;;;2.97;;
434;SDS011;204;48.942;9.256;2023-07-29T01:50:52;3.70;;;2.40;;
434;SDS011;204;48.942;9.256;2023-07-29T01:53:17;3.40;;;2.70;;
434;SDS011;204;48.942;9.256;2023-07-29T01:55:43;2.37;;;2.10;;
434;SDS011;204;48.942;9.256;2023-07-29T01:58:09;3.87;;;2.77;;
434;SDS011;204;48.942;9.256;2023-07-29T02:00:35;2.70;;;2.50;;
434;SDS011;204;48.942;9.256;2023-07-29T02:03:01;2.77;;;2.60;;
434;SDS011;204;48.942;9.256;2023-07-29T02:05:26;3.60;;;3.40;;
434;SDS011;204;48.942;9.256;2023-07-29T02:07:52;2.73;;;2.53;;
434;SDS011;204;48.942;9.256;2023-07-29T02:10:18;3.43;;;3.33;;
434;SDS011;204;48.942;9.256;2023-07-29T02:12:43;5.10;;;3.30;;
434;SDS011;204;48.942;9.256;2023-07-29T02:15:09;2.97;;;2.80;;
434;SDS011;204;48.942;9.256;2023-07-29T02:17:35;2.47;;;2.30;;
434;SDS011;204;48.942;9.256;2023-07-29T02:20:01;5.63;;;2.10;;
434;SDS011;204;48.942;9.256;2023-07-29T02:22:29;3.87;;;2.77;;
434;SDS011;204;48.942;9.256;2023-07-29T02:24:54;2.40;;;2.20;;
434;SDS011;204;48.942;9.256;2023-07-29T02:27:20;7.43;;;2.87;;
434;SDS011;204;48.942;9.256;2023-07-29T02:29:46;2.87;;;2.67;;
434;SDS011;204;48.942;9.256;2023-07-29T02:32:11;3.80;;;2.73;;
434;SDS011;204;48.942;9.256;2023-07-29T02:34:37;3.30;;;3.10;;
434;SDS011;204;48.942;9.256;2023-07-29T02:37:02;2.27;;;2.07;;
434;SDS011;204;48.942;9.256;2023-07-29T02:39:28;2.33;;;2.17;;
434;SDS011;204;48.942;9.256;2023-07-29T02:41:54;2.40;;;2.20;;
434;SDS011;204;48.942;9.256;2023-07-29T02:44:20;2.87;;;2.40;;
434;SDS011;204;48.942;9.256;2023-07-29T02:46:46;5.33;;;3.00;;
434;SDS011;204;48.942;9.256;2023-07-29T02:49:12;2.20;;;2.00;;
434;SDS011;204;48.942;9.256;2023-07-29T02:51:37;2.20;;;2.00;;
434;SDS011;204;48.942;9.256;2023-07-29T02:54:03;3.40;;;2.47;;
434;SDS011;204;48.942;9.256;2023-07-29T02:56:28;2.90;;;1.93;;
434;SDS011;204;48.942;9.256;2023-07-29T02:58:55;2.83;;;1.83;;
434;SDS011;204;48.942;9.256;2023-07-29T03:01:21;1.93;;;1.70;;
434;SDS011;204;48.942;9.256;2023-07-29T03:03:47;1.60;;;1.50;;
434;SDS011;204;48.942;9.256;2023-07-29T03:06:14;1.80;;;1.70;;
434;SDS011;204;48.942;9.256;2023-07-29T03:08:40;1.90;;;1.80;;
434;SDS011;204;48.942;9.256;2023-07-29T03:11:07;4.50;;;2.03;;
434;SDS011;204;48.942;9.256;2023-07-29T03:13:34;1.80;;;1.70;;
434;SDS011;204;48.942;9.256;2023-07-29T03:16:06;2.30;;;2.13;;
434;SDS011;204;48.942;9.256;2023-07-29T03:18:36;2.70;;;2.50;;
434;SDS011;204;48.942;9.256;2023-07-29T03:21:02;2.90;;;2.43;;
434;SDS011;204;48.942;9.256;2023-07-29T03:23:29;2.70;;;2.50;;
434;SDS011;204;48.942;9.256;2023-07-29T03:25:55;2.70;;;2.50;;
434;SDS011;204;48.942;9.256;2023-07-29T03:28:26;2.80;;;2.60;;
434;SDS011;204;48.942;9.256;2023-07-29T03:30:56;2.60;;;2.40;;
434;SDS011;204;48.942;9.256;2023-07-29T03:33:23;4.57;;;3.40;;
434;SDS011;204;48.942;9.256;2023-07-29T03:35:50;2.13;;;1.97;;
434;SDS011;204;48.942;9.256;2023-07-29T03:38:15;2.80;;;2.30;;
434;SDS011;204;48.942;9.256;2023-07-29T03:40:41;2.87;;;2.43;;
434;SDS011;204;48.942;9.256;2023-07-29T03:43:07;2.30;;;2.10;;
434;SDS011;204;48.942;9.256;2023-07-29T03:45:34;2.50;;;2.07;;
434;SDS011;204;48.942;9.256;2023-07-29T03:48:00;3.90;;;2.43;;
434;SDS011;204;48.942;9.256;2023-07-29T03:50:26;2.50;;;2.30;;
434;SDS011;204;48.942;9.256;2023-07-29T03:52:53;1.90;;;1.80;;
434;SDS011;204;48.942;9.256;2023-07-29T03:55:19;1.80;;;1.70;;
434;SDS011;204;48.942;9.256;2023-07-29T03:57:45;4.60;;;2.63;;
434;SDS011;204;48.942;9.256;2023-07-29T04:00:11;4.60;;;2.63;;
434;SDS011;204;48.942;9.256;2023-07-29T04:02:37;4.70;;;2.17;;
434;SDS011;204;48.942;9.256;2023-07-29T04:05:03;2.40;;;2.20;;
434;SDS011;204;48.942;9.256;2023-07-29T04:07:30;5.13;;;2.87;;
434;SDS011;204;48.942;9.256;2023-07-29T04:09:56;1.90;;;1.80;;
434;SDS011;204;48.942;9.256;2023-07-29T04:12:22;2.57;;;2.00;;
434;SDS011;204;48.942;9.256;2023-07-29T04:14:48;1.90;;;1.90;;
434;SDS011;204;48.942;9.256;2023-07-29T04:17:14;2.70;;;2.10;;
434;SDS011;204;48.942;9.256;2023-07-29T04:19:40;2.33;;;1.90;;
434;SDS011;204;48.942;9.256;2023-07-29T04:22:05;2.60;;;2.40;;
434;SDS011;204;48.942;9.256;2023-07-29T04:24:31;2.83;;;1.80;;
434;SDS011;204;48.942;9.256;2023-07-29T04:26:57;2.60;;;2.30;;
434;SDS011;204;48.942;9.256;2023-07-29T04:29:22;2.40;;;2.20;;
434;SDS011;204;48.942;9.256;2023-07-29T04:31:51;4.23;;;2.43;;
434;SDS011;204;48.942;9.256;2023-07-29T04:34:19;4.77;;;1.90;;
434;SDS011;204;48.942;9.256;2023-07-29T04:36:46;1.77;;;1.67;;
434;SDS011;204;48.942;9.256;2023-07-29T04:39:12;2.93;;;2.20;;
434;SDS011;204;48.942;9.256;2023-07-29T04:41:38;2.40;;;2.20;;
434;SDS011;204;48.942;9.256;2023-07-29T04:44:03;2.80;;;2.40;;
434;SDS011;204;48.942;9.256;2023-07-29T04:46:29;4.50;;;2.27;;
434;SDS011;204;48.942;9.256;2023-07-29T04:48:57;2.37;;;2.17;;
434;SDS011;204;48.942;9.256;2023-07-29T04:51:23;5.43;;;3.33;;
434;SDS011;204;48.942;9.256;2023-07-29T04:53:49;2.60;;;1.93;;
434;SDS011;204;48.942;9.256;2023-07-29T04:56:15;9.40;;;2.60;;
434;SDS011;204;48.942;9.256;2023-07-29T04:58:40;3.17;;;2.33;;
434;SDS011;204;48.942;9.256;2023-07-29T05:01:06;5.93;;;2.83;;
434;SDS011;204;48.942;9.256;2023-07-29T05:03:32;6.83;;;2.50;;
434;SDS011;204;48.942;9.256;2023-07-29T05:05:58;2.70;;;2.60;;
434;SDS011;204;48.942;9.256;2023-07-29T05:08:24;4.77;;;2.80;;
434;SDS011;204;48.942;9.256;2023-07-29T05:10:50;3.20;;;2.63;;
434;SDS011;204;48.942;9.256;2023-07-29T05:13:17;3.60;;;2.50;;
434;SDS011;204;48.942;9.256;2023-07-29T05:15:43;2.60;;;2.40;;
434;SDS011;204;48.942;9.256;2023-07-29T05:18:09;3.80;;;1.90;;
434;SDS011;204;48.942;9.256;2023-07-29T05:20:34;4.43;;;2.20;;
434;SDS011;204;48.942;9.256;2023-07-29T05:23:00;2.87;;;2.60;;
434;SDS011;204;48.942;9.256;2023-07-29T05:25:26;3.50;;;1.90;;
434;SDS011;204;48.942;9.256;2023-07-29T05:27:51;3.40;;;2.20;;
434;SDS011;204;48.942;9.256;2023-07-29T05:30:17;4.03;;;2.53;;
434;SDS011;204;48.942;9.256;2023-07-29T05:32:43;3.03;;;2.27;;
434;SDS011;204;48.942;9.256;2023-07-29T05:35:08;2.20;;;1.83;;
434;SDS011;204;48.942;9.256;2023-07-29T05:37:35;2.80;;;2.10;;
434;SDS011;204;48.942;9.256;2023-07-29T05:40:02;2.03;;;1.67;;
434;SDS011;204;48.942;9.256;2023-07-29T05:42:29;2.73;;;2.20;;
434;SDS011;204;48.942;9.256;2023-07-29T05:44:54;2.60;;;2.40;;
434;SDS011;204;48.942;9.256;2023-07-29T05:47:20;2.23;;;1.90;;
434;SDS011;204;48.942;9.256;2023-07-29T05:49:45;3.90;;;2.30;;
434;SDS011;204;48.942;9.256;2023-07-29T05:52:11;3.37;;;2.00;;
434;SDS011;204;48.942;9.256;2023-07-29T05:54:37;3.13;;;2.17;;
434;SDS011;204;48.942;9.256;2023-07-29T05:57:02;3.80;;;1.90;;
434;SDS011;204;48.942;9.256;2023-07-29T05:59:28;3.17;;;1.93;;
434;SDS011;204;48.942;9.256;2023-07-29T06:01:54;2.20;;;2.00;;
434;SDS011;204;48.942;9.256;2023-07-29T06:04:20;3.60;;;2.13;;
434;SDS011;204;48.942;9.256;2023-07-29T06:06:45;2.53;;;1.87;;
434;SDS011;204;48.942;9.256;2023-07-29T06:09:11;2.53;;;2.37;;
434;SDS011;204;48.942;9.256;2023-07-29T06:11:37;2.93;;;1.97;;
434;SDS011;204;48.942;9.256;2023-07-29T06:14:02;4.37;;;1.93;;
434;SDS011;204;48.942;9.256;2023-07-29T06:16:28;2.23;;;1.70;;
434;SDS011;204;48.942;9.256;2023-07-29T06:18:53;2.00;;;1.90;;
434;SDS011;204;48.942;9.256;2023-07-29T06:21:19;3.13;;;2.17;;
434;SDS011;204;48.942;9.256;2023-07-29T06:23:45;2.20;;;2.00;;
434;SDS011;204;48.942;9.256;2023-07-29T06:26:11;2.00;;;1.73;;
434;SDS011;204;48.942;9.256;2023-07-29T06:28:36;1.93;;;1.83;;
434;SDS011;204;48.942;9.256;2023-07-29T06:31:02;2.87;;;1.90;;
434;SDS011;204;48.942;9.256;2023-07-29T06:33:27;2.00;;;1.77;;
434;SDS011;204;48.942;9.256;2023-07-29T06:35:53;2.10;;;1.67;;
434;SDS011;204;48.942;9.256;2023-07-29T06:38:19;2.57;;;2.37;;
434;SDS011;204;48.942;9.256;2023-07-29T06:40:47;3.57;;;2.13;;
434;SDS011;204;48.942;9.256;2023-07-29T06:43:13;2.17;;;2.00;;
434;SDS011;204;48.942;9.256;2023-07-29T06:45:38;1.80;;;1.70;;
434;SDS011;204;48.942;9.256;2023-07-29T06:48:04;2.53;;;1.97;;
434;SDS011;204;48.942;9.256;2023-07-29T06:50:29;3.07;;;2.23;;
434;SDS011;204;48.942;9.256;2023-07-29T06:52:55;3.10;;;2.13;;
434;SDS011;204;48.942;9.256;2023-07-29T06:55:21;2.97;;;1.87;;
434;SDS011;204;48.942;9.256;2023-07-29T06:57:46;2.40;;;2.00;;
434;SDS011;204;48.942;9.256;2023-07-29T07:00:12;2.00;;;1.90;;
434;SDS011;204;48.942;9.256;2023-07-29T07:02:37;4.27;;;2.90;;
434;SDS011;204;48.942;9.256;2023-07-29T07:05:03;3.10;;;2.90;;
434;SDS011;204;48.942;9.256;2023-07-29T07:07:29;3.60;;;2.30;;
434;SDS011;204;48.942;9.256;2023-07-29T07:09:55;2.63;;;2.17;;
434;SDS011;204;48.942;9.256;2023-07-29T07:12:21;5.27;;;2.10;;
434;SDS011;204;48.942;9.256;2023-07-29T07:14:47;3.20;;;3.00;;
434;SDS011;204;48.942;9.256;2023-07-29T07:17:12;3.20;;;2.03;;
434;SDS011;204;48.942;9.256;2023-07-29T07:19:38;2.27;;;2.07;;
434;SDS011;204;48.942;9.256;2023-07-29T07:22:04;4.13;;;2.50;;
434;SDS011;204;48.942;9.256;2023-07-29T07:24:29;3.10;;;2.90;;
434;SDS011;204;48.942;9.256;2023-07-29T07:26:55;9.40;;;3.00;;
434;SDS011;204;48.942;9.256;2023-07-29T07:29:21;2.40;;;2.20;;
434;SDS011;204;48.942;9.256;2023-07-29T07:31:50;3.13;;;2.20;;
434;SDS011;204;48.942;9.256;2023-07-29T07:34:20;2.93;;;2.73;;
434;SDS011;204;48.942;9.256;2023-07-29T07:36:46;5.50;;;3.13;;
434;SDS011;204;48.942;9.256;2023-07-29T07:39:12;3.70;;;2.90;;
434;SDS011;204;48.942;9.256;2023-07-29T07:41:37;4.67;;;2.60;;
434;SDS011;204;48.942;9.256;2023-07-29T07:44:03;2.47;;;1.83;;
434;SDS011;204;48.942;9.256;2023-07-29T07:46:29;3.20;;;2.30;;
434;SDS011;204;48.942;9.256;2023-07-29T07:48:54;2.30;;;2.17;;
434;SDS011;204;48.942;9.256;2023-07-29T07:51:20;4.13;;;2.43;;
434;SDS011;204;48.942;9.256;2023-07-29T07:53:45;2.77;;;2.60;;
434;SDS011;204;48.942;9.256;2023-07-29T07:56:11;6.70;;;2.73;;
434;SDS011;204;48.942;9.256;2023-07-29T07:58:37;5.23;;;2.90;;
434;SDS011;204;48.942;9.256;2023-07-29T08:01:03;3.83;;;2.83;;
434;SDS011;204;48.942;9.256;2023-07-29T08:03:33;2.80;;;2.27;;
434;SDS011;204;48.942;9.256;2023-07-29T08:05:59;2.17;;;2.00;;
434;SDS011;204;48.942;9.256;2023-07-29T08:08:25;4.50;;;1.93;;
434;SDS011;204;48.942;9.256;2023-07-29T08:10:54;3.33;;;2.50;;
434;SDS011;204;48.942;9.256;2023-07-29T08:13:24;2.37;;;2.17;;
434;SDS011;204;48.942;9.256;2023-07-29T08:15:50;2.67;;;1.87;;
434;SDS011;204;48.942;9.256;2023-07-29T08:18:16;3.00;;;1.83;;
434;SDS011;204;48.942;9.256;2023-07-29T08:20:52;5.37;;;2.40;;
434;SDS011;204;48.942;9.256;2023-07-29T08:23:23;2.37;;;1.50;;
434;SDS011;204;48.942;9.256;2023-07-29T08:25:51;2.30;;;1.60;;
434;SDS011;204;48.942;9.256;2023-07-29T08:28:21;3.43;;;1.97;;
434;SDS011;204;48.942;9.256;2023-07-29T08:30:47;2.87;;;1.73;;
434;SDS011;204;48.942;9.256;2023-07-29T08:33:13;1.63;;;1.30;;
434;SDS011;204;48.942;9.256;2023-07-29T08:35:39;3.93;;;1.77;;
434;SDS011;204;48.942;9.256;2023-07-29T08:38:04;1.53;;;1.43;;
434;SDS011;204;48.942;9.256;2023-07-29T08:40:30;3.33;;;1.50;;
434;SDS011;204;48.942;9.256;2023-07-29T08:42:59;2.80;;;1.73;;
434;SDS011;204;48.942;9.256;2023-07-29T08:45:29;2.77;;;1.53;;
434;SDS011;204;48.942;9.256;2023-07-29T08:47:59;3.67;;;1.63;;
434;SDS011;204;48.942;9.256;2023-07-29T08:50:27;1.13;;;1.00;;
434;SDS011;204;48.942;9.256;2023-07-29T08:52:54;1.67;;;1.17;;
434;SDS011;204;48.942;9.256;2023-07-29T08:55:21;1.33;;;1.23;;
434;SDS011;204;48.942;9.256;2023-07-29T08:57:47;1.30;;;0.80;;
434;SDS011;204;48.942;9.256;2023-07-29T09:00:13;3.77;;;1.20;;
434;SDS011;204;48.942;9.256;2023-07-29T09:02:39;1.50;;;1.10;;
434;SDS011;204;48.942;9.256;2023-07-29T09:05:04;2.80;;;0.90;;
434;SDS011;204;48.942;9.256;2023-07-29T09:07:30;1.90;;;1.30;;
434;SDS011;204;48.942;9.256;2023-07-29T09:09:59;1.00;;;0.93;;
434;SDS011;204;48.942;9.256;2023-07-29T09:12:24;1.60;;;0.80;;
434;SDS011;204;48.942;9.256;2023-07-29T09:14:53;1.43;;;1.20;;
434;SDS011;204;48.942;9.256;2023-07-29T09:17:19;2.20;;;1.20;;
434;SDS011;204;48.942;9.256;2023-07-29T09:19:47;2.40;;;1.07;;
434;SDS011;204;48.942;9.256;2023-07-29T09:22:20;1.33;;;1.07;;
434;SDS011;204;48.942;9.256;2023-07-29T09:24:46;2.60;;;1.07;;
434;SDS011;204;48.942;9.256;2023-07-29T09:27:33;1.33;;;1.23;;
434;SDS011;204;48.942;9.256;2023-07-29T09:30:03;3.93;;;1.23;;
434;SDS011;204;48.942;9.256;2023-07-29T09:32:30;1.20;;;1.10;;
434;SDS011;204;48.942;9.256;2023-07-29T09:34:55;1.27;;;1.13;;
434;SDS011;204;48.942;9.256;2023-07-29T09:37:21;2.00;;;1.17;;
434;SDS011;204;48.942;9.256;2023-07-29T09:39:47;1.83;;;1.27;;
434;SDS011;204;48.942;9.256;2023-07-29T09:42:20;2.00;;;0.90;;
434;SDS011;204;48.942;9.256;2023-07-29T09:44:48;3.50;;;1.30;;
434;SDS011;204;48.942;9.256;2023-07-29T09:47:18;1.83;;;1.77;;
434;SDS011;204;48.942;9.256;2023-07-29T09:49:45;7.07;;;2.87;;
434;SDS011;204;48.942;9.256;2023-07-29T09:52:11;1.80;;;1.63;;
434;SDS011;204;48.942;9.256;2023-07-29T09:54:36;1.43;;;1.40;;
434;SDS011;204;48.942;9.256;2023-07-29T09:57:02;4.43;;;2.13;;
434;SDS011;204;48.942;9.256;2023-07-29T09:59:30;20.90;;;4.87;;
434;SDS011;204;48.942;9.256;2023-07-29T10:01:59;17.97;;;2.83;;
434;SDS011;204;48.942;9.256;2023-07-29T10:04:25;107.60;;;8.17;;
434;SDS011;204;48.942;9.256;2023-07-29T10:06:52;9.73;;;2.47;;
434;SDS011;204;48.942;9.256;2023-07-29T10:09:18;4.00;;;1.83;;
434;SDS011;204;48.942;9.256;2023-07-29T10:11:46;14.97;;;4.40;;
434;SDS011;204;48.942;9.256;2023-07-29T10:14:12;2.83;;;1.80;;
434;SDS011;204;48.942;9.256;2023-07-29T10:16:41;3.50;;;2.57;;
434;SDS011;204;48.942;9.256;2023-07-29T10:19:10;3.10;;;2.37;;
434;SDS011;204;48.942;9.256;2023-07-29T10:21:38;3.63;;;3.43;;
434;SDS011;204;48.942;9.256;2023-07-29T10:24:05;3.43;;;3.07;;
434;SDS011;204;48.942;9.256;2023-07-29T10:26:37;5.00;;;3.30;;
434;SDS011;204;48.942;9.256;2023-07-29T10:29:05;4.43;;;3.30;;
434;SDS011;204;48.942;9.256;2023-07-29T10:31:35;4.03;;;2.67;;
434;SDS011;204;48.942;9.256;2023-07-29T10:34:02;3.30;;;3.10;;
434;SDS011;204;48.942;9.256;2023-07-29T10:36:28;4.80;;;2.90;;
434;SDS011;204;48.942;9.256;2023-07-29T10:38:54;3.30;;;3.10;;
434;SDS011;204;48.942;9.256;2023-07-29T10:41:20;7.30;;;2.87;;
434;SDS011;204;48.942;9.256;2023-07-29T10:43:45;2.83;;;2.60;;
434;SDS011;204;48.942;9.256;2023-07-29T10:46:15;5.43;;;2.80;;
434;SDS011;204;48.942;9.256;2023-07-29T10:48:54;2.80;;;2.60;;
434;SDS011;204;48.942;9.256;2023-07-29T10:54:00;2.80;;;2.60;;
434;SDS011;204;48.942;9.256;2023-07-29T10:56:31;3.07;;;2.93;;
434;SDS011;204;48.942;9.256;2023-07-29T10:58:58;3.33;;;2.30;;
434;SDS011;204;48.942;9.256;2023-07-29T11:01:51;5.20;;;2.50;;
434;SDS011;204;48.942;9.256;2023-07-29T11:12:33;1.90;;;1.80;;
434;SDS011;204;48.942;9.256;2023-07-29T11:15:32;1.80;;;1.70;;
434;SDS011;204;48.942;9.256;2023-07-29T11:17:55;2.17;;;1.50;;
434;SDS011;204;48.942;9.256;2023-07-29T11:20:26;1.90;;;1.73;;
434;SDS011;204;48.942;9.256;2023-07-29T11:22:57;2.10;;;1.30;;
434;SDS011;204;48.942;9.256;2023-07-29T11:25:24;2.77;;;1.90;;
434;SDS011;204;48.942;9.256;2023-07-29T11:27:53;1.90;;;1.10;;
434;SDS011;204;48.942;9.256;2023-07-29T11:30:20;1.47;;;1.37;;
434;SDS011;204;48.942;9.256;2023-07-29T11:32:46;2.20;;;1.37;;
434;SDS011;204;48.942;9.256;2023-07-29T11:35:15;1.37;;;1.30;;
434;SDS011;204;48.942;9.256;2023-07-29T11:51:10;1.97;;;1.30;;
434;SDS011;204;48.942;9.256;2023-07-29T11:53:37;1.10;;;1.00;;
434;SDS011;204;48.942;9.256;2023-07-29T11:56:17;1.47;;;1.37;;
434;SDS011;204;48.942;9.256;2023-07-29T11:59:27;3.07;;;1.60;;
434;SDS011;204;48.942;9.256;2023-07-29T12:01:56;1.87;;;1.77;;
434;SDS011;204;48.942;9.256;2023-07-29T12:07:18;1.80;;;1.33;;
434;SDS011;204;48.942;9.256;2023-07-29T12:09:44;3.30;;;2.03;;
434;SDS011;204;48.942;9.256;2023-07-29T12:12:11;1.63;;;1.53;;
434;SDS011;204;48.942;9.256;2023-07-29T12:14:37;1.80;;;1.13;;
434;SDS011;204;48.942;9.256;2023-07-29T12:17:03;1.17;;;1.10;;
434;SDS011;204;48.942;9.256;2023-07-29T12:19:34;2.90;;;1.20;;
434;SDS011;204;48.942;9.256;2023-07-29T12:22:01;1.23;;;1.20;;
434;SDS011;204;48.942;9.256;2023-07-29T12:24:29;1.30;;;1.20;;
434;SDS011;204;48.942;9.256;2023-07-29T12:27:13;1.63;;;1.50;;
434;SDS011;204;48.942;9.256;2023-07-29T12:29:41;1.50;;;1.40;;
434;SDS011;204;48.942;9.256;2023-07-29T12:32:07;1.20;;;1.10;;
434;SDS011;204;48.942;9.256;2023-07-29T12:34:34;1.90;;;1.80;;
434;SDS011;204;48.942;9.256;2023-07-29T12:37:02;1.27;;;1.03;;
434;SDS011;204;48.942;9.256;2023-07-29T12:39:28;1.43;;;1.40;;
434;SDS011;204;48.942;9.256;2023-07-29T12:45:15;1.47;;;1.13;;
434;SDS011;204;48.942;9.256;2023-07-29T12:53:53;1.47;;;1.43;;
434;SDS011;204;48.942;9.256;2023-07-29T12:56:19;3.57;;;1.20;;
434;SDS011;204;48.942;9.256;2023-07-29T13:01:53;2.80;;;1.33;;
434;SDS011;204;48.942;9.256;2023-07-29T13:04:31;2.20;;;1.53;;
434;SDS011;204;48.942;9.256;2023-07-29T13:13:40;9.07;;;1.73;;
434;SDS011;204;48.942;9.256;2023-07-29T13:16:06;2.13;;;1.50;;
434;SDS011;204;48.942;9.256;2023-07-29T13:18:32;1.67;;;1.57;;
434;SDS011;204;48.942;9.256;2023-07-29T13:20:58;1.43;;;1.33;;
434;SDS011;204;48.942;9.256;2023-07-29T13:23:25;2.00;;;1.90;;
434;SDS011;204;48.942;9.256;2023-07-29T13:25:51;2.00;;;1.60;;
434;SDS011;204;48.942;9.256;2023-07-29T13:28:16;1.67;;;1.67;;
434;SDS011;204;48.942;9.256;2023-07-29T13:30:42;2.30;;;1.50;;
434;SDS011;204;48.942;9.256;2023-07-29T13:33:08;1.80;;;1.70;;
434;SDS011;204;48.942;9.256;2023-07-29T13:35:33;2.50;;;1.53;;
434;SDS011;204;48.942;9.256;2023-07-29T13:37:59;1.47;;;1.40;;
434;SDS011;204;48.942;9.256;2023-07-29T13:40:25;2.80;;;1.63;;
434;SDS011;204;48.942;9.256;2023-07-29T13:42:51;1.53;;;1.43;;
434;SDS011;204;48.942;9.256;2023-07-29T13:45:17;1.57;;;1.47;;
434;SDS011;204;48.942;9.256;2023-07-29T13:47:43;1.67;;;1.57;;
434;SDS011;204;48.942;9.256;2023-07-29T13:50:09;4.23;;;3.97;;
434;SDS011;204;48.942;9.256;2023-07-29T13:52:36;1.67;;;1.57;;
434;SDS011;204;48.942;9.256;2023-07-29T13:55:02;2.50;;;1.83;;
434;SDS011;204;48.942;9.256;2023-07-29T13:57:28;1.80;;;1.27;;
434;SDS011;204;48.942;9.256;2023-07-29T13:59:54;1.27;;;1.17;;
434;SDS011;204;48.942;9.256;2023-07-29T14:02:19;1.50;;;1.40;;
434;SDS011;204;48.942;9.256;2023-07-29T14:05:18;1.50;;;1.33;;
434;SDS011;204;48.942;9.256;2023-07-29T14:07:37;1.20;;;1.10;;
434;SDS011;204;48.942;9.256;2023-07-29T14:10:03;1.93;;;1.83;;
434;SDS011;204;48.942;9.256;2023-07-29T14:12:29;2.10;;;1.27;;
434;SDS011;204;48.942;9.256;2023-07-29T14:14:57;1.53;;;1.43;;
434;SDS011;204;48.942;9.256;2023-07-29T14:17:26;1.93;;;1.63;;
434;SDS011;204;48.942;9.256;2023-07-29T14:19:57;6.63;;;1.40;;
434;SDS011;204;48.942;9.256;2023-07-29T14:22:23;2.33;;;1.30;;
434;SDS011;204;48.942;9.256;2023-07-29T14:38:16;1.23;;;1.20;;
434;SDS011;204;48.942;9.256;2023-07-29T14:40:41;1.57;;;1.50;;
434;SDS011;204;48.942;9.256;2023-07-29T14:43:07;2.00;;;1.73;;
434;SDS011;204;48.942;9.256;2023-07-29T14:45:32;1.60;;;1.50;;
434;SDS011;204;48.942;9.256;2023-07-29T14:47:58;2.23;;;1.60;;
434;SDS011;204;48.942;9.256;2023-07-29T14:50:23;3.40;;;1.57;;
434;SDS011;204;48.942;9.256;2023-07-29T14:52:49;1.20;;;1.10;;
434;SDS011;204;48.942;9.256;2023-07-29T14:55:14;2.40;;;1.90;;
434;SDS011;204;48.942;9.256;2023-07-29T14:57:40;1.47;;;1.40;;
434;SDS011;204;48.942;9.256;2023-07-29T15:00:06;2.60;;;1.33;;
434;SDS011;204;48.942;9.256;2023-07-29T15:02:32;2.17;;;1.97;;
434;SDS011;204;48.942;9.256;2023-07-29T15:04:58;1.93;;;1.40;;
434;SDS011;204;48.942;9.256;2023-07-29T15:07:23;3.30;;;2.30;;
434;SDS011;204;48.942;9.256;2023-07-29T15:09:49;2.40;;;2.20;;
434;SDS011;204;48.942;9.256;2023-07-29T15:12:14;1.57;;;1.50;;
434;SDS011;204;48.942;9.256;2023-07-29T15:14:40;1.40;;;1.30;;
434;SDS011;204;48.942;9.256;2023-07-29T15:17:06;1.50;;;1.40;;
434;SDS011;204;48.942;9.256;2023-07-29T15:19:32;1.50;;;1.40;;
434;SDS011;204;48.942;9.256;2023-07-29T15:21:57;1.60;;;1.60;;
434;SDS011;204;48.942;9.256;2023-07-29T15:24:23;1.73;;;1.57;;
434;SDS011;204;48.942;9.256;2023-07-29T15:26:48;1.87;;;1.60;;
434;SDS011;204;48.942;9.256;2023-07-29T15:29:14;2.30;;;1.80;;
434;SDS011;204;48.942;9.256;2023-07-29T15:31:40;1.50;;;1.40;;
434;SDS011;204;48.942;9.256;2023-07-29T15:34:06;1.87;;;1.80;;
434;SDS011;204;48.942;9.256;2023-07-29T15:36:32;1.90;;;1.70;;
434;SDS011;204;48.942;9.256;2023-07-29T15:38:57;2.47;;;1.80;;
434;SDS011;204;48.942;9.256;2023-07-29T15:41:23;2.00;;;1.70;;
434;SDS011;204;48.942;9.256;2023-07-29T15:43:49;1.97;;;1.80;;
434;SDS011;204;48.942;9.256;2023-07-29T15:46:15;1.57;;;1.50;;
434;SDS011;204;48.942;9.256;2023-07-29T15:48:40;2.57;;;1.53;;
434;SDS011;204;48.942;9.256;2023-07-29T15:51:06;1.33;;;1.23;;
434;SDS011;204;48.942;9.256;2023-07-29T15:53:32;2.30;;;1.80;;
434;SDS011;204;48.942;9.256;2023-07-29T15:55:58;1.97;;;1.87;;
434;SDS011;204;48.942;9.256;2023-07-29T15:58:23;2.50;;;1.57;;
434;SDS011;204;48.942;9.256;2023-07-29T16:00:49;1.87;;;1.77;;
434;SDS011;204;48.942;9.256;2023-07-29T16:03:14;1.80;;;1.70;;
434;SDS011;204;48.942;9.256;2023-07-29T16:05:40;2.40;;;1.70;;
434;SDS011;204;48.942;9.256;2023-07-29T16:08:05;2.67;;;2.10;;
434;SDS011;204;48.942;9.256;2023-07-29T16:10:31;1.77;;;1.73;;
434;SDS011;204;48.942;9.256;2023-07-29T16:12:56;1.80;;;1.70;;
434;SDS011;204;48.942;9.256;2023-07-29T16:15:31;2.00;;;1.90;;
434;SDS011;204;48.942;9.256;2023-07-29T16:31:25;2.33;;;1.60;;
434;SDS011;204;48.942;9.256;2023-07-29T16:33:51;2.33;;;1.87;;
434;SDS011;204;48.942;9.256;2023-07-29T16:36:16;2.20;;;2.00;;
434;SDS011;204;48.942;9.256;2023-07-29T16:38:42;2.13;;;2.00;;
434;SDS011;204;48.942;9.256;2023-07-29T16:41:08;2.07;;;1.93;;
434;SDS011;204;48.942;9.256;2023-07-29T16:43:33;1.47;;;1.40;;
434;SDS011;204;48.942;9.256;2023-07-29T16:45:59;2.00;;;1.67;;
434;SDS011;204;48.942;9.256;2023-07-29T16:48:24;2.50;;;1.67;;
434;SDS011;204;48.942;9.256;2023-07-29T16:50:50;1.90;;;1.80;;
434;SDS011;204;48.942;9.256;2023-07-29T16:53:16;1.97;;;1.90;;
434;SDS011;204;48.942;9.256;2023-07-29T16:55:41;1.87;;;1.77;;
434;SDS011;204;48.942;9.256;2023-07-29T16:58:07;2.20;;;2.00;;
434;SDS011;204;48.942;9.256;2023-07-29T17:00:32;1.80;;;1.70;;
434;SDS011;204;48.942;9.256;2023-07-29T17:02:58;1.50;;;1.40;;
434;SDS011;204;48.942;9.256;2023-07-29T17:05:24;2.67;;;2.33;;
434;SDS011;204;48.942;9.256;2023-07-29T17:07:49;2.60;;;1.93;;